Time;durP1;ratioP1;P1;durP2;ratioP2;P2;SDS_P1;SDS_P2;PMS_P1;PMS_P2;Temp;Humidity;BMP_temperature;BMP_pressure;BME280_temperature;BME280_humidity;BME280_pressure;Samples;Min_cycle;Max_cycle;Signal;HPM_P1;HPM_P2
2022/01/29 00:00:55;;;;;;;13.07;6.53;;;5.40;56.80;;;;;;5065914;28;34182;-76
2022/01/29 00:03:22;;;;;;;10.60;5.97;;;5.40;56.50;;;;;;5065822;28;34195;-76
2022/01/29 00:05:49;;;;;;;13.82;6.78;;;5.40;56.70;;;;;;5065730;28;34171;-76
2022/01/29 00:08:16;;;;;;;14.85;5.97;;;5.40;57.00;;;;;;5084354;28;34236;-76
2022/01/29 00:10:43;;;;;;;12.63;6.38;;;5.40;57.80;;;;;;5065871;28;35832;-76
2022/01/29 00:13:10;;;;;;;14.38;6.85;;;5.40;57.00;;;;;;5083876;28;34465;-76
2022/01/29 00:15:36;;;;;;;16.25;7.20;;;5.40;56.70;;;;;;5083988;28;34232;-76
2022/01/29 00:18:02;;;;;;;17.30;7.65;;;5.40;56.70;;;;;;5049229;28;34140;-77
2022/01/29 00:20:28;;;;;;;14.60;7.28;;;5.40;57.10;;;;;;5048476;28;35717;-76
2022/01/29 00:22:54;;;;;;;15.40;7.88;;;5.40;56.80;;;;;;5048661;28;34080;-77
2022/01/29 00:25:20;;;;;;;12.90;6.85;;;5.40;56.70;;;;;;5066062;28;34066;-76
2022/01/29 00:27:46;;;;;;;14.25;7.43;;;5.40;56.90;;;;;;5048888;28;34497;-76
2022/01/29 00:30:17;;;;;;;14.60;7.57;;;5.40;56.70;;;;;;5065703;28;35577;-76
2022/01/29 00:32:43;;;;;;;16.20;7.85;;;5.40;56.70;;;;;;5065076;28;34200;-76
2022/01/29 00:35:09;;;;;;;14.93;7.55;;;5.40;56.60;;;;;;5065521;28;34112;-76
2022/01/29 00:37:36;;;;;;;18.45;7.53;;;5.40;56.80;;;;;;5048908;28;34247;-76
2022/01/29 00:40:07;;;;;;;16.52;7.00;;;5.40;56.80;;;;;;5050424;28;35313;-76
2022/01/29 00:42:33;;;;;;;16.48;8.20;;;5.40;56.70;;;;;;5064693;28;34084;-76
2022/01/29 00:44:59;;;;;;;18.23;8.20;;;5.40;56.60;;;;;;5065348;28;34230;-76
2022/01/29 00:47:25;;;;;;;16.00;8.55;;;5.40;56.80;;;;;;5065758;28;34308;-76
2022/01/29 00:49:51;;;;;;;15.73;7.47;;;5.40;56.70;;;;;;5048437;28;34500;-76
2022/01/29 00:52:17;;;;;;;17.60;7.82;;;5.40;56.70;;;;;;5048909;28;34346;-76
2022/01/29 00:54:45;;;;;;;16.33;7.55;;;5.40;56.80;;;;;;5048349;28;34212;-76
2022/01/29 00:57:11;;;;;;;19.42;8.55;;;5.40;56.80;;;;;;5048916;28;34197;-76
2022/01/29 00:59:37;;;;;;;17.80;8.23;;;5.30;56.70;;;;;;5064713;28;36399;-76
2022/01/29 01:02:04;;;;;;;17.42;8.02;;;5.40;56.80;;;;;;5048365;28;34271;-76
2022/01/29 01:04:30;;;;;;;15.60;8.00;;;5.40;57.00;;;;;;5048211;28;34425;-76
2022/01/29 01:06:56;;;;;;;16.05;7.85;;;5.40;56.90;;;;;;5065147;28;34373;-76
2022/01/29 01:09:22;;;;;;;14.77;7.93;;;5.40;57.30;;;;;;5065286;28;35552;-76
2022/01/29 01:11:48;;;;;;;19.00;8.15;;;5.40;57.00;;;;;;5031334;28;34205;-76
2022/01/29 01:14:14;;;;;;;18.58;8.88;;;5.40;57.00;;;;;;5048070;28;34229;-76
2022/01/29 01:16:39;;;;;;;18.83;8.30;;;5.40;57.20;;;;;;5064424;28;34508;-76
2022/01/29 01:19:05;;;;;;;23.17;8.35;;;5.40;56.90;;;;;;5082682;28;34297;-77
2022/01/29 01:21:31;;;;;;;20.10;8.10;;;5.40;57.20;;;;;;5048681;28;34156;-76
2022/01/29 01:23:57;;;;;;;14.95;7.20;;;5.40;57.20;;;;;;5064929;28;34386;-76
2022/01/29 01:26:23;;;;;;;15.35;7.38;;;5.30;57.60;;;;;;5048088;28;34219;-76
2022/01/29 01:28:49;;;;;;;17.73;8.70;;;5.30;57.30;;;;;;5064201;28;35849;-76
2022/01/29 01:31:15;;;;;;;19.95;8.07;;;5.30;57.30;;;;;;5064358;28;34117;-77
2022/01/29 01:33:43;;;;;;;15.68;8.05;;;5.30;57.50;;;;;;5064695;28;34316;-76
2022/01/29 01:36:09;;;;;;;15.15;8.15;;;5.30;57.30;;;;;;5064740;28;34144;-75
2022/01/29 01:38:43;;;;;;;15.05;8.10;;;5.30;57.50;;;;;;5064176;28;36102;-76
2022/01/29 01:41:13;;;;;;;16.38;8.20;;;5.30;57.60;;;;;;5082574;28;34178;-76
2022/01/29 01:43:39;;;;;;;16.75;8.30;;;5.30;57.70;;;;;;5064039;28;34336;-76
2022/01/29 01:46:05;;;;;;;19.65;8.43;;;5.30;57.50;;;;;;5064934;28;34373;-76
2022/01/29 01:48:31;;;;;;;16.27;7.78;;;5.30;57.30;;;;;;5064576;28;35728;-76
2022/01/29 01:50:58;;;;;;;17.63;8.57;;;5.30;57.30;;;;;;5082829;28;34060;-76
2022/01/29 01:53:24;;;;;;;16.77;8.32;;;5.30;57.40;;;;;;5083696;28;34182;-76
2022/01/29 01:55:50;;;;;;;16.77;8.18;;;5.30;57.40;;;;;;5069019;28;34413;-77
2022/01/29 01:58:17;;;;;;;16.00;8.35;;;5.30;57.40;;;;;;5067660;28;35804;-76
2022/01/29 02:00:43;;;;;;;14.55;7.38;;;5.30;57.30;;;;;;5067966;28;34325;-76
2022/01/29 02:03:10;;;;;;;18.20;8.43;;;5.30;57.20;;;;;;5068193;28;34329;-76
2022/01/29 02:05:37;;;;;;;18.20;8.65;;;5.40;57.30;;;;;;5052086;28;34572;-76
2022/01/29 02:08:03;;;;;;;14.60;7.88;;;5.40;57.30;;;;;;5067858;28;36547;-76
2022/01/29 02:10:30;;;;;;;16.88;8.43;;;5.40;57.20;;;;;;5067740;28;34132;-76
2022/01/29 02:13:01;;;;;;;19.42;9.02;;;5.40;57.30;;;;;;5067968;28;34095;-76
2022/01/29 02:15:29;;;;;;;16.30;8.30;;;5.40;57.10;;;;;;5052371;28;34504;-76
2022/01/29 02:17:55;;;;;;;20.27;8.70;;;5.40;57.10;;;;;;5067631;28;35604;-76
2022/01/29 02:20:23;;;;;;;18.08;8.55;;;5.40;57.10;;;;;;5086300;28;34125;-76
2022/01/29 02:22:50;;;;;;;17.92;8.70;;;5.40;57.50;;;;;;5067535;28;34157;-76
2022/01/29 02:25:35;;;;;;;17.23;8.50;;;5.40;57.30;;;;;;5067672;28;34499;-76
2022/01/29 02:28:13;;;;;;;23.98;9.13;;;5.40;57.40;;;;;;5067242;28;36378;-76
2022/01/29 02:30:42;;;;;;;20.60;9.30;;;5.40;57.10;;;;;;5052050;28;34341;-76
2022/01/29 02:33:11;;;;;;;19.10;9.00;;;5.40;57.20;;;;;;5035411;28;34182;-76
2022/01/29 02:35:40;;;;;;;19.58;8.88;;;5.40;57.00;;;;;;5035791;28;34379;-75
2022/01/29 02:38:06;;;;;;;16.95;8.57;;;5.40;57.20;;;;;;5067367;28;35766;-76
2022/01/29 02:40:36;;;;;;;18.17;8.77;;;5.50;57.20;;;;;;5085571;28;34250;-76
2022/01/29 02:43:12;;;;;;;19.92;8.88;;;5.40;57.10;;;;;;5067543;28;34230;-76
2022/01/29 02:45:40;;;;;;;21.30;8.38;;;5.50;57.30;;;;;;5067464;28;34215;-76
2022/01/29 02:48:06;;;;;;;16.02;8.45;;;5.40;57.30;;;;;;5067757;28;36835;-76
2022/01/29 02:50:32;;;;;;;20.27;8.52;;;5.40;57.30;;;;;;5050924;28;34232;-76
2022/01/29 02:52:58;;;;;;;16.85;8.63;;;5.40;57.30;;;;;;5067162;28;34288;-76
2022/01/29 02:55:24;;;;;;;15.15;8.48;;;5.40;57.30;;;;;;5067292;28;34170;-76
2022/01/29 02:57:50;;;;;;;17.33;9.13;;;5.40;57.30;;;;;;5033507;28;36093;-76
2022/01/29 03:00:16;;;;;;;19.10;9.18;;;5.40;57.20;;;;;;5067130;28;34144;-76
2022/01/29 03:02:42;;;;;;;19.60;9.57;;;5.50;57.20;;;;;;5067299;28;34148;-76
2022/01/29 03:05:08;;;;;;;20.23;9.50;;;5.50;57.20;;;;;;5066628;28;34135;-75
2022/01/29 03:07:34;;;;;;;18.23;9.75;;;5.40;57.30;;;;;;5067284;28;34340;-76
2022/01/29 03:10:00;;;;;;;17.30;8.45;;;5.40;57.30;;;;;;5033770;28;34403;-76
2022/01/29 03:12:26;;;;;;;16.38;10.38;;;5.40;57.50;;;;;;5050673;28;34442;-75
2022/01/29 03:14:52;;;;;;;17.20;8.27;;;5.40;57.30;;;;;;5085365;28;34416;-76
2022/01/29 03:17:18;;;;;;;18.55;9.13;;;5.30;57.50;;;;;;5033412;28;36358;-76
2022/01/29 03:19:44;;;;;;;18.80;9.40;;;5.40;57.50;;;;;;5033456;28;34068;-76
2022/01/29 03:22:10;;;;;;;18.60;9.60;;;5.40;57.50;;;;;;5049697;28;34172;-77
2022/01/29 03:24:35;;;;;;;16.88;9.32;;;5.40;57.60;;;;;;5050471;28;34600;-75
2022/01/29 03:27:03;;;;;;;17.02;9.02;;;5.40;57.80;;;;;;5050090;28;35613;-76
2022/01/29 03:29:28;;;;;;;16.77;8.38;;;5.30;57.80;;;;;;5067422;28;34476;-75
2022/01/29 03:31:55;;;;;;;15.88;8.55;;;5.30;57.80;;;;;;5084378;28;34271;-76
2022/01/29 03:34:21;;;;;;;16.23;8.52;;;5.30;57.80;;;;;;5049974;28;34517;-76
2022/01/29 03:36:47;;;;;;;17.50;8.90;;;5.30;57.70;;;;;;5066267;28;36332;-76
2022/01/29 03:39:12;;;;;;;15.75;8.18;;;5.30;57.90;;;;;;5066776;28;34336;-76
2022/01/29 03:41:39;;;;;;;14.93;8.00;;;5.40;57.80;;;;;;5084174;28;34120;-76
2022/01/29 03:44:07;;;;;;;14.82;7.47;;;5.30;58.40;;;;;;5049968;28;34416;-76
2022/01/29 03:46:33;;;;;;;16.02;7.43;;;5.30;58.00;;;;;;5050102;28;36064;-76
2022/01/29 03:48:59;;;;;;;16.48;7.75;;;5.30;57.70;;;;;;5066226;28;34273;-76
2022/01/29 03:51:25;;;;;;;14.27;8.23;;;5.30;57.90;;;;;;5066636;28;34387;-76
2022/01/29 03:53:51;;;;;;;17.27;8.05;;;5.30;57.70;;;;;;5084530;28;34336;-76
2022/01/29 03:56:17;;;;;;;14.70;7.95;;;5.40;57.80;;;;;;5066151;28;36545;-75
2022/01/29 03:58:44;;;;;;;13.77;7.45;;;5.30;57.70;;;;;;5084387;28;34338;-76
2022/01/29 04:01:10;;;;;;;13.20;7.43;;;5.40;57.60;;;;;;5065938;28;34156;-76
2022/01/29 04:03:36;;;;;;;17.10;7.28;;;5.40;57.40;;;;;;5066463;28;34042;-76
2022/01/29 04:06:03;;;;;;;13.13;7.22;;;5.40;57.40;;;;;;5066139;28;36780;-76
2022/01/29 04:08:29;;;;;;;15.05;7.90;;;5.40;58.30;;;;;;5065950;28;34191;-76
2022/01/29 04:10:55;;;;;;;13.43;7.38;;;5.40;57.60;;;;;;5084129;28;34349;-76
2022/01/29 04:13:23;;;;;;;13.00;7.22;;;5.40;57.70;;;;;;5066111;28;34179;-76
2022/01/29 04:15:50;;;;;;;12.18;7.40;;;5.40;57.80;;;;;;5048629;28;36872;-76
2022/01/29 04:18:15;;;;;;;11.90;6.90;;;5.40;57.70;;;;;;5065691;28;34298;-76
2022/01/29 04:20:43;;;;;;;12.25;7.28;;;5.40;57.70;;;;;;5044798;28;34342;-75
2022/01/29 04:23:09;;;;;;;13.82;6.53;;;5.40;57.80;;;;;;5054972;28;34366;-76
2022/01/29 04:25:35;;;;;;;12.48;6.18;;;5.30;57.80;;;;;;5063446;28;36567;-76
2022/01/29 04:28:03;;;;;;;14.57;6.97;;;5.40;57.70;;;;;;5050755;28;34333;-76
2022/01/29 04:30:32;;;;;;;13.52;6.40;;;5.40;57.80;;;;;;5067813;28;34083;-76
2022/01/29 04:33:03;;;;;;;11.65;5.97;;;5.40;57.70;;;;;;5067330;28;34551;-76
2022/01/29 04:35:30;;;;;;;10.07;5.50;;;5.40;57.80;;;;;;5047381;28;35646;-76
2022/01/29 04:37:56;;;;;;;10.25;6.10;;;5.40;57.70;;;;;;5085242;28;34083;-76
2022/01/29 04:40:22;;;;;;;9.13;5.78;;;5.40;57.60;;;;;;5050669;28;34117;-76
2022/01/29 04:42:48;;;;;;;9.52;5.72;;;5.40;57.60;;;;;;5083461;28;34391;-75
2022/01/29 04:45:14;;;;;;;11.93;5.05;;;5.40;57.60;;;;;;5082304;28;35455;-76
2022/01/29 04:47:41;;;;;;;9.30;5.47;;;5.40;57.50;;;;;;5098738;28;34215;-75
2022/01/29 04:50:07;;;;;;;11.57;5.82;;;5.40;57.30;;;;;;5083616;28;34454;-75
2022/01/29 04:52:33;;;;;;;8.27;4.78;;;5.50;57.40;;;;;;5083786;28;34245;-76
2022/01/29 04:54:59;;;;;;;8.60;4.72;;;5.40;57.30;;;;;;5099338;28;35588;-76
2022/01/29 04:57:25;;;;;;;7.53;4.57;;;5.40;57.50;;;;;;5065126;28;34167;-75
2022/01/29 04:59:51;;;;;;;7.50;4.40;;;5.40;57.30;;;;;;5048829;28;34240;-76
2022/01/29 05:02:17;;;;;;;8.55;5.03;;;5.40;57.60;;;;;;5049046;28;34544;-76
2022/01/29 05:04:43;;;;;;;6.90;4.25;;;5.40;57.50;;;;;;5031873;28;35552;-76
2022/01/29 05:07:09;;;;;;;7.22;4.68;;;5.40;57.30;;;;;;5082137;28;34241;-76
2022/01/29 05:09:35;;;;;;;7.20;3.95;;;5.50;57.30;;;;;;5065746;28;34203;-76
2022/01/29 05:12:02;;;;;;;6.40;4.53;;;5.50;57.40;;;;;;5065901;28;34287;-75
2022/01/29 05:14:39;;;;;;;5.38;4.03;;;5.50;57.30;;;;;;5081655;28;35627;-76
2022/01/29 05:27:50;;;;;;;4.80;3.22;;;5.40;57.30;;;;;;5081754;28;34170;-76
2022/01/29 05:30:16;;;;;;;5.88;3.88;;;5.40;57.40;;;;;;5048078;28;34241;-76
2022/01/29 05:32:42;;;;;;;5.60;3.40;;;5.40;57.20;;;;;;5099239;28;34201;-76
2022/01/29 05:35:08;;;;;;;5.63;3.35;;;5.40;57.40;;;;;;5098714;28;35811;-76
2022/01/29 05:37:34;;;;;;;5.35;3.13;;;5.40;57.40;;;;;;5082884;28;34155;-76
2022/01/29 05:40:00;;;;;;;5.40;3.58;;;5.40;57.40;;;;;;5064876;28;34427;-76
2022/01/29 05:42:26;;;;;;;5.88;3.60;;;5.40;57.30;;;;;;5098539;28;34171;-76
2022/01/29 05:44:52;;;;;;;3.38;2.67;;;5.40;57.20;;;;;;5064538;28;36781;-76
2022/01/29 05:47:18;;;;;;;3.53;2.83;;;5.40;57.90;;;;;;5064669;28;34261;-76
2022/01/29 05:49:44;;;;;;;3.60;2.53;;;5.40;57.70;;;;;;5064699;28;34218;-76
2022/01/29 05:52:10;;;;;;;3.65;2.28;;;5.40;57.40;;;;;;5065208;28;34347;-76
2022/01/29 05:54:35;;;;;;;3.90;2.80;;;5.40;57.60;;;;;;5064638;28;36221;-77
2022/01/29 05:57:01;;;;;;;3.40;2.38;;;5.40;57.90;;;;;;5081781;28;34205;-76
2022/01/29 05:59:27;;;;;;;3.70;2.30;;;5.40;57.60;;;;;;5031732;28;34358;-76
2022/01/29 06:01:53;;;;;;;5.00;2.60;;;5.40;57.70;;;;;;5082740;28;34446;-76
2022/01/29 06:04:19;;;;;;;3.80;2.50;;;5.40;57.70;;;;;;5064891;28;34311;-76
2022/01/29 06:06:45;;;;;;;3.17;2.10;;;5.30;57.40;;;;;;5031263;28;34272;-76
2022/01/29 06:09:11;;;;;;;4.47;2.00;;;5.40;57.80;;;;;;5047570;28;34238;-76
2022/01/29 06:11:37;;;;;;;2.92;2.17;;;5.40;57.70;;;;;;5064674;28;34468;-76
2022/01/29 06:14:03;;;;;;;2.38;1.88;;;5.40;57.40;;;;;;5098560;28;35775;-76
2022/01/29 06:16:30;;;;;;;4.75;2.33;;;5.40;57.50;;;;;;5098463;28;34198;-76
2022/01/29 06:18:56;;;;;;;3.45;2.28;;;5.40;57.60;;;;;;5097897;28;34290;-76
2022/01/29 06:21:22;;;;;;;2.67;1.85;;;5.40;57.60;;;;;;5081696;28;34166;-76
2022/01/29 06:23:48;;;;;;;2.88;2.20;;;5.40;57.60;;;;;;5081627;28;34237;-76
2022/01/29 06:26:14;;;;;;;2.45;1.52;;;5.40;57.60;;;;;;5082471;28;34298;-76
2022/01/29 06:28:40;;;;;;;3.00;1.95;;;5.40;57.70;;;;;;5097871;28;34317;-76
2022/01/29 06:31:07;;;;;;;1.85;1.55;;;5.40;57.60;;;;;;5083075;28;34191;-76
2022/01/29 06:33:33;;;;;;;2.95;1.65;;;5.40;57.70;;;;;;5064555;28;36509;-76
2022/01/29 06:35:59;;;;;;;3.17;1.60;;;5.40;57.80;;;;;;5097809;28;34186;-75
2022/01/29 06:38:25;;;;;;;2.38;1.60;;;5.40;57.70;;;;;;5063872;28;34161;-76
2022/01/29 06:40:52;;;;;;;2.22;1.30;;;5.40;57.80;;;;;;5082247;28;34520;-76
2022/01/29 06:43:18;;;;;;;2.25;1.52;;;5.40;58.00;;;;;;5100898;28;35513;-76
2022/01/29 06:45:46;;;;;;;2.95;1.58;;;5.40;58.00;;;;;;5085207;28;34376;-76
2022/01/29 06:48:13;;;;;;;2.13;1.33;;;5.40;58.00;;;;;;5051107;28;34322;-76
2022/01/29 06:50:39;;;;;;;1.95;1.35;;;5.40;58.00;;;;;;5085489;28;34209;-76
2022/01/29 06:53:06;;;;;;;2.13;1.38;;;5.40;57.80;;;;;;5100951;28;36270;-76
2022/01/29 06:55:33;;;;;;;1.58;1.10;;;5.40;57.90;;;;;;5085786;28;34160;-76
2022/01/29 06:57:58;;;;;;;1.30;1.13;;;5.40;57.70;;;;;;5067297;28;34269;-76
2022/01/29 07:00:24;;;;;;;1.50;1.40;;;5.40;57.70;;;;;;5085271;28;34411;-76
2022/01/29 07:02:50;;;;;;;1.27;1.17;;;5.40;57.60;;;;;;5066380;28;36465;-76
2022/01/29 07:05:16;;;;;;;1.58;1.33;;;5.40;57.60;;;;;;5085205;28;34167;-76
2022/01/29 07:07:42;;;;;;;1.60;1.50;;;5.50;57.60;;;;;;5066986;28;34307;-76
2022/01/29 07:10:09;;;;;;;1.70;1.20;;;5.50;57.60;;;;;;5067972;28;34428;-76
2022/01/29 07:12:38;;;;;;;1.23;1.13;;;5.50;57.50;;;;;;5050020;28;35655;-76
2022/01/29 07:15:06;;;;;;;1.67;1.20;;;5.50;57.60;;;;;;5085354;28;34349;-75
2022/01/29 07:17:32;;;;;;;1.45;1.13;;;5.50;57.70;;;;;;5101159;28;34402;-76
2022/01/29 07:19:58;;;;;;;1.00;0.90;;;5.50;57.80;;;;;;5067352;28;34390;-76
2022/01/29 07:22:24;;;;;;;1.55;1.05;;;5.50;58.00;;;;;;5083567;28;35805;-76
2022/01/29 07:24:50;;;;;;;0.98;0.88;;;5.50;58.00;;;;;;5100063;28;34222;-76
2022/01/29 07:27:16;;;;;;;1.23;1.13;;;5.50;57.90;;;;;;5100432;28;34375;-75
2022/01/29 07:29:42;;;;;;;1.50;0.93;;;5.50;57.90;;;;;;5067219;28;34365;-76
2022/01/29 07:32:08;;;;;;;1.67;1.10;;;5.50;57.80;;;;;;5100421;28;35763;-76
2022/01/29 07:34:34;;;;;;;1.02;0.85;;;5.60;57.70;;;;;;5084491;28;34150;-76
2022/01/29 07:37:00;;;;;;;1.23;1.10;;;5.60;58.00;;;;;;5100882;28;34187;-76
2022/01/29 07:39:27;;;;;;;1.27;0.93;;;5.60;58.10;;;;;;5101878;28;34044;-76
2022/01/29 07:41:54;;;;;;;1.38;1.10;;;5.60;57.80;;;;;;5101746;28;35568;-76
2022/01/29 07:44:21;;;;;;;1.13;1.00;;;5.60;57.80;;;;;;5049878;28;34291;-76
2022/01/29 07:46:47;;;;;;;1.40;1.08;;;5.60;57.80;;;;;;5049679;28;34142;-76
2022/01/29 07:49:13;;;;;;;1.23;1.13;;;5.60;57.80;;;;;;5084383;28;34360;-76
2022/01/29 07:51:40;;;;;;;1.17;0.98;;;5.60;57.80;;;;;;5099474;27;35661;-77
2022/01/29 07:54:07;;;;;;;1.20;0.98;;;5.60;58.40;;;;;;5049890;28;34083;-76
2022/01/29 07:56:33;;;;;;;1.67;0.95;;;5.70;58.00;;;;;;5100275;28;34475;-76
2022/01/29 07:58:59;;;;;;;1.15;0.70;;;5.70;57.80;;;;;;5066253;28;34258;-76
2022/01/29 08:01:25;;;;;;;1.00;0.90;;;5.70;58.10;;;;;;5049961;28;35955;-76
2022/01/29 08:03:53;;;;;;;0.77;0.77;;;5.80;57.90;;;;;;5067243;28;34575;-76
2022/01/29 08:06:22;;;;;;;1.17;0.90;;;5.80;57.80;;;;;;5101392;28;34289;-76
2022/01/29 08:08:49;;;;;;;1.08;0.98;;;5.80;58.00;;;;;;5101492;28;34520;-76
2022/01/29 08:11:15;;;;;;;1.15;1.05;;;5.90;58.00;;;;;;5100965;28;36198;-76
2022/01/29 08:13:43;;;;;;;0.80;0.80;;;5.90;57.80;;;;;;5085087;28;34142;-75
2022/01/29 08:16:09;;;;;;;0.93;0.70;;;5.90;57.80;;;;;;5067602;28;34184;-76
2022/01/29 08:18:35;;;;;;;1.42;1.10;;;5.90;57.70;;;;;;5101141;28;34075;-76
2022/01/29 08:21:01;;;;;;;0.75;0.73;;;5.90;57.70;;;;;;5100860;28;35703;-76
2022/01/29 08:23:27;;;;;;;0.77;0.70;;;5.90;57.80;;;;;;5084327;28;34328;-76
2022/01/29 08:25:53;;;;;;;1.85;0.88;;;6.00;57.70;;;;;;5101292;28;34380;-76
2022/01/29 08:28:19;;;;;;;0.88;0.75;;;6.00;57.60;;;;;;5101539;28;34382;-76
2022/01/29 08:30:45;;;;;;;0.70;0.70;;;6.00;57.80;;;;;;5100446;28;35605;-76
2022/01/29 08:33:17;;;;;;;1.10;0.88;;;6.00;57.80;;;;;;5100640;28;34158;-76
2022/01/29 08:35:43;;;;;;;1.77;1.00;;;6.10;57.60;;;;;;5084840;28;34001;-76
2022/01/29 08:38:09;;;;;;;1.42;0.85;;;6.10;57.70;;;;;;5067248;28;34302;-76
2022/01/29 08:40:35;;;;;;;0.80;0.80;;;6.20;57.60;;;;;;5100535;28;35510;-76
2022/01/29 08:43:01;;;;;;;1.10;0.85;;;6.20;57.50;;;;;;5084260;28;34023;-76
2022/01/29 08:45:27;;;;;;;0.88;0.88;;;6.20;57.40;;;;;;5085351;28;34263;-76
2022/01/29 08:47:54;;;;;;;0.60;0.60;;;6.20;57.40;;;;;;5085284;28;34091;-77
2022/01/29 08:50:20;;;;;;;1.17;1.00;;;6.20;57.50;;;;;;5050118;28;35691;-76
2022/01/29 08:52:46;;;;;;;0.85;0.70;;;6.20;57.40;;;;;;5100277;28;34467;-76
2022/01/29 08:55:12;;;;;;;1.10;0.70;;;6.20;57.60;;;;;;5084896;28;34040;-75
2022/01/29 08:57:38;;;;;;;0.80;0.70;;;6.20;57.60;;;;;;5100677;28;34038;-76
2022/01/29 09:00:06;;;;;;;0.93;0.70;;;6.30;58.00;;;;;;5084310;28;34688;-76
2022/01/29 09:02:32;;;;;;;0.85;0.85;;;6.30;57.90;;;;;;5032966;28;34058;-76
2022/01/29 09:04:59;;;;;;;1.23;0.90;;;6.30;57.80;;;;;;5084552;28;34230;-76
2022/01/29 09:07:26;;;;;;;0.75;0.70;;;6.30;58.00;;;;;;5100513;28;34139;-76
2022/01/29 09:09:53;;;;;;;0.73;0.73;;;6.40;57.90;;;;;;5100419;28;35866;-76
2022/01/29 09:12:20;;;;;;;1.35;1.10;;;6.40;57.90;;;;;;5100393;28;34102;-76
2022/01/29 09:14:46;;;;;;;0.80;0.80;;;6.60;58.50;;;;;;5100004;28;34312;-76
2022/01/29 09:17:12;;;;;;;0.77;0.70;;;6.60;57.60;;;;;;5049653;28;34386;-76
2022/01/29 09:19:38;;;;;;;1.13;0.63;;;6.60;57.60;;;;;;5084111;28;34369;-76
2022/01/29 09:22:04;;;;;;;0.70;0.70;;;6.60;57.60;;;;;;5066839;28;34089;-76
2022/01/29 09:24:30;;;;;;;0.60;0.60;;;6.70;57.80;;;;;;5066461;28;34257;-76
2022/01/29 09:26:56;;;;;;;0.82;0.77;;;6.70;57.70;;;;;;5065915;28;34100;-76
2022/01/29 09:29:22;;;;;;;0.60;0.60;;;6.80;57.60;;;;;;5084375;28;34334;-76
2022/01/29 09:31:48;;;;;;;0.68;0.68;;;6.90;57.60;;;;;;5066422;28;34375;-75
2022/01/29 09:34:14;;;;;;;0.52;0.52;;;6.90;58.20;;;;;;5084509;28;34042;-76
2022/01/29 09:36:40;;;;;;;0.77;0.70;;;6.90;57.50;;;;;;5066229;28;34471;-77
2022/01/29 09:39:06;;;;;;;0.57;0.55;;;6.90;57.40;;;;;;5084297;28;34384;-76
2022/01/29 09:41:32;;;;;;;0.65;0.65;;;6.90;57.50;;;;;;5066025;28;34256;-76
2022/01/29 09:43:58;;;;;;;0.93;0.90;;;6.90;57.50;;;;;;5065854;28;34206;-76
2022/01/29 09:46:30;;;;;;;1.95;0.70;;;7.00;57.50;;;;;;5100083;28;34088;-76
2022/01/29 09:48:58;;;;;;;0.60;0.60;;;7.00;57.40;;;;;;5099012;28;36068;-76
2022/01/29 09:51:25;;;;;;;0.50;0.50;;;7.10;57.50;;;;;;5082932;28;34225;-76
2022/01/29 09:53:51;;;;;;;0.60;0.60;;;7.10;57.50;;;;;;5066049;28;34069;-76
2022/01/29 09:56:17;;;;;;;0.70;0.60;;;7.10;57.50;;;;;;5083834;28;34036;-77
2022/01/29 09:58:44;;;;;;;0.63;0.60;;;7.20;57.70;;;;;;5099629;28;35909;-77
2022/01/29 10:01:10;;;;;;;0.73;0.70;;;7.20;57.60;;;;;;5083708;28;34269;-76
2022/01/29 10:03:36;;;;;;;0.60;0.60;;;7.20;57.50;;;;;;5083869;28;34132;-76
2022/01/29 10:06:03;;;;;;;0.47;0.47;;;7.20;57.50;;;;;;5100311;28;34353;-76
2022/01/29 10:08:40;;;;;;;0.70;0.70;;;7.20;57.40;;;;;;5101968;28;36169;-76
2022/01/29 10:11:20;;;;;;;0.60;0.60;;;7.20;57.50;;;;;;5070483;28;34110;-76
2022/01/29 10:13:46;;;;;;;0.60;0.60;;;7.20;57.60;;;;;;5080150;28;34055;-76
2022/01/29 10:16:23;;;;;;;0.82;0.70;;;7.20;57.60;;;;;;5087439;28;34106;-77
2022/01/29 10:19:05;;;;;;;0.70;0.70;;;7.30;57.80;;;;;;5069008;28;35685;-76
2022/01/29 10:21:35;;;;;;;0.38;0.38;;;7.30;57.70;;;;;;5052118;28;34359;-76
2022/01/29 10:24:06;;;;;;;0.52;0.50;;;7.30;57.80;;;;;;5068755;28;34051;-76
2022/01/29 10:26:35;;;;;;;0.68;0.63;;;7.30;57.50;;;;;;5069042;28;34180;-76
2022/01/29 10:29:06;;;;;;;0.60;0.60;;;7.40;57.40;;;;;;5068690;28;36502;-76
2022/01/29 10:31:50;;;;;;;4.05;0.60;;;7.40;57.60;;;;;;5080184;28;34307;-76
2022/01/29 10:34:32;;;;;;;0.88;0.60;;;7.50;57.70;;;;;;5079057;28;34062;-76
2022/01/29 10:37:15;;;;;;;0.52;0.52;;;7.50;57.60;;;;;;5069166;28;34096;-77
2022/01/29 10:39:47;;;;;;;0.40;0.40;;;7.50;57.60;;;;;;5098075;28;34076;-76
2022/01/29 10:42:22;;;;;;;1.60;0.70;;;7.50;57.50;;;;;;5086678;28;34105;-76
2022/01/29 10:44:51;;;;;;;0.57;0.45;;;7.50;57.50;;;;;;5048475;28;34121;-76
2022/01/29 10:47:17;;;;;;;2.13;0.55;;;7.50;57.60;;;;;;5048572;28;34097;-76
2022/01/29 10:50:02;;;;;;;0.63;0.63;;;7.60;57.60;;;;;;5048484;28;35624;-76
2022/01/29 10:52:32;;;;;;;0.60;0.60;;;7.60;57.50;;;;;;5048246;28;34441;-76
2022/01/29 10:55:02;;;;;;;0.57;0.57;;;7.60;57.50;;;;;;5064075;28;34330;-77
2022/01/29 10:57:39;;;;;;;0.50;0.50;;;7.70;57.70;;;;;;5031659;28;34364;-76
2022/01/29 11:00:09;;;;;;;0.50;0.50;;;7.70;57.50;;;;;;5030315;28;35526;-76
2022/01/29 11:02:35;;;;;;;0.65;0.60;;;7.70;57.60;;;;;;5047753;28;34165;-76
2022/01/29 11:05:04;;;;;;;0.60;0.60;;;7.80;57.60;;;;;;5047006;28;34163;-76
2022/01/29 11:07:31;;;;;;;0.60;0.60;;;7.80;57.40;;;;;;5080720;28;34396;-76
2022/01/29 11:10:00;;;;;;;0.70;0.70;;;7.90;57.50;;;;;;5063046;28;35785;-76
2022/01/29 11:12:27;;;;;;;0.68;0.68;;;7.90;57.40;;;;;;5047529;28;34256;-76
2022/01/29 11:14:55;;;;;;;0.80;0.80;;;8.00;58.30;;;;;;5048522;28;34034;-76
2022/01/29 11:17:23;;;;;;;0.50;0.50;;;8.00;57.40;;;;;;5066076;28;34319;-76
2022/01/29 11:19:49;;;;;;;0.73;0.55;;;8.00;57.60;;;;;;5031810;28;36105;-76
2022/01/29 11:22:23;;;;;;;0.60;0.60;;;8.00;57.50;;;;;;5066358;28;34294;-77
2022/01/29 11:24:56;;;;;;;0.65;0.52;;;8.00;57.50;;;;;;5081166;28;34341;-76
2022/01/29 11:27:26;;;;;;;0.50;0.50;;;7.90;57.80;;;;;;5045654;28;34462;-76
2022/01/29 11:30:13;;;;;;;1.30;0.60;;;7.90;57.70;;;;;;5046279;28;35799;-76
2022/01/29 11:32:42;;;;;;;0.50;0.50;;;8.00;57.80;;;;;;5030245;28;34225;-76
2022/01/29 11:35:17;;;;;;;0.43;0.43;;;8.00;57.80;;;;;;5046718;28;34203;-76
2022/01/29 11:37:58;;;;;;;0.50;0.50;;;8.00;57.90;;;;;;5046641;28;34298;-77
2022/01/29 11:40:31;;;;;;;0.70;0.60;;;8.00;58.30;;;;;;5031424;28;35085;-76
2022/01/29 11:43:08;;;;;;;0.63;0.60;;;8.00;58.00;;;;;;5044358;28;34944;-77
2022/01/29 11:45:44;;;;;;;0.90;0.50;;;8.00;58.00;;;;;;5030027;28;34271;-77
2022/01/29 11:48:51;;;;;;;0.80;0.40;;;8.10;58.00;;;;;;5046821;28;34168;-76
2022/01/29 11:51:47;;;;;;;0.73;0.47;;;8.10;58.00;;;;;;5063943;28;34988;-77
2022/01/29 11:54:20;;;;;;;0.47;0.47;;;8.20;58.00;;;;;;5046510;28;34415;-76
2022/01/29 11:56:47;;;;;;;0.50;0.50;;;8.20;57.80;;;;;;5045724;28;34311;-76
2022/01/29 11:59:27;;;;;;;0.35;0.35;;;8.20;58.60;;;;;;5046974;28;34268;-76
2022/01/29 12:01:58;;;;;;;0.80;0.70;;;8.20;58.00;;;;;;5046575;28;35933;-76
2022/01/29 12:05:04;;;;;;;0.95;0.45;;;8.20;57.80;;;;;;5029892;28;34315;-76
2022/01/29 12:07:36;;;;;;;0.40;0.40;;;8.30;58.10;;;;;;5052866;28;34173;-76
2022/01/29 12:10:08;;;;;;;0.52;0.43;;;8.40;58.00;;;;;;5045562;28;34558;-76
2022/01/29 12:12:36;;;;;;;1.15;0.60;;;8.50;57.80;;;;;;5047137;28;35720;-76
2022/01/29 12:15:38;;;;;;;0.50;0.50;;;8.50;57.90;;;;;;5046747;28;34196;-76
2022/01/29 12:18:25;;;;;;;0.40;0.40;;;8.50;58.40;;;;;;5069417;28;34343;-77
2022/01/29 12:20:51;;;;;;;0.40;0.40;;;8.50;57.90;;;;;;5065308;28;34098;-77
2022/01/29 12:23:17;;;;;;;0.40;0.40;;;8.60;57.90;;;;;;5046765;28;35803;-76
2022/01/29 12:25:53;;;;;;;0.57;0.57;;;8.60;57.70;;;;;;5065242;28;34490;-77
2022/01/29 12:28:19;;;;;;;0.50;0.50;;;8.60;57.80;;;;;;5047185;28;34128;-76
2022/01/29 12:30:45;;;;;;;0.40;0.40;;;8.60;57.70;;;;;;5063646;28;34413;-77
2022/01/29 12:33:14;;;;;;;0.50;0.50;;;8.70;57.80;;;;;;5064295;28;35079;-76
2022/01/29 12:35:45;;;;;;;0.40;0.40;;;8.70;57.70;;;;;;5064717;28;34176;-76
2022/01/29 12:38:15;;;;;;;0.50;0.50;;;8.70;57.70;;;;;;5030077;28;33982;-76
2022/01/29 12:40:51;;;;;;;0.40;0.40;;;8.80;57.60;;;;;;5046924;28;34356;-76
2022/01/29 12:43:23;;;;;;;0.38;0.30;;;8.80;57.70;;;;;;5030834;28;35635;-76
2022/01/29 12:45:50;;;;;;;0.50;0.50;;;8.80;57.70;;;;;;5046839;28;34052;-78
2022/01/29 12:48:17;;;;;;;0.50;0.50;;;8.80;57.90;;;;;;5046776;28;34163;-77
2022/01/29 12:50:44;;;;;;;0.35;0.35;;;8.80;57.80;;;;;;5047170;28;34104;-77
2022/01/29 12:53:16;;;;;;;1.08;0.50;;;8.90;57.90;;;;;;5046669;28;35794;-76
2022/01/29 12:55:42;;;;;;;1.73;0.52;;;8.90;58.10;;;;;;5047095;28;34210;-77
2022/01/29 12:58:08;;;;;;;0.40;0.40;;;8.90;58.00;;;;;;5047013;28;34117;-77
2022/01/29 13:00:36;;;;;;;0.60;0.50;;;9.00;58.00;;;;;;5030327;28;34482;-77
2022/01/29 13:03:05;;;;;;;0.52;0.52;;;9.00;57.90;;;;;;5046023;28;35594;-76
2022/01/29 13:05:38;;;;;;;0.50;0.50;;;9.00;57.80;;;;;;5063515;28;34292;-77
2022/01/29 13:08:04;;;;;;;1.30;0.57;;;9.00;57.80;;;;;;5046938;28;34188;-77